Time;durP1;ratioP1;P1;durP2;ratioP2;P2;SDS_P1;SDS_P2;PMS_P1;PMS_P2;Temp;Humidity;BMP_temperature;BMP_pressure;BME280_temperature;BME280_humidity;BME280_pressure;Samples;Min_cycle;Max_cycle;Signal;HPM_P1;HPM_P2
2022/04/17 00:01:51;;;;;;;0.47;0.47;;;;;;;;;;4925968;29;20469;-76
2022/04/17 00:04:21;;;;;;;0.40;0.40;;;;;;;;;;4934109;29;20339;-76
2022/04/17 00:06:47;;;;;;;1.15;1.00;;;;;;;;;;4925965;29;20111;-76
2022/04/17 00:09:12;;;;;;;0.50;0.45;;;;;;;;;;4932391;29;20167;-76
2022/04/17 00:11:41;;;;;;;0.25;0.25;;;;;;;;;;4923798;29;20094;-75
2022/04/17 00:14:09;;;;;;;0.50;0.50;;;;;;;;;;4923640;29;20490;-75
2022/04/17 00:16:44;;;;;;;1.38;1.27;;;;;;;;;;4922994;29;20585;-76
2022/04/17 00:19:13;;;;;;;0.40;0.40;;;;;;;;;;4934179;29;20538;-77
2022/04/17 00:21:40;;;;;;;0.45;0.45;;;;;;;;;;4935354;29;20038;-75
2022/04/17 00:24:05;;;;;;;0.82;0.77;;;;;;;;;;4922493;29;20482;-76
2022/04/17 00:26:31;;;;;;;0.60;0.60;;;;;;;;;;4932213;29;20038;-76
2022/04/17 00:28:57;;;;;;;1.50;1.35;;;;;;;;;;4939771;29;20424;-75
2022/04/17 00:31:23;;;;;;;1.15;0.70;;;;;;;;;;4939738;29;20082;-76
2022/04/17 00:33:48;;;;;;;1.05;0.50;;;;;;;;;;4939795;29;20032;-75
2022/04/17 00:36:14;;;;;;;0.65;0.65;;;;;;;;;;4938950;29;20054;-75
2022/04/17 00:38:39;;;;;;;0.80;0.57;;;;;;;;;;4937979;29;20031;-76
2022/04/17 00:41:04;;;;;;;2.13;0.50;;;;;;;;;;4925026;29;20537;-76
2022/04/17 00:43:31;;;;;;;1.52;0.75;;;;;;;;;;4921936;29;20279;-76
2022/04/17 00:45:57;;;;;;;0.47;0.40;;;;;;;;;;4921762;29;20163;-76
2022/04/17 00:48:22;;;;;;;0.45;0.45;;;;;;;;;;4921678;29;20477;-75
2022/04/17 00:50:50;;;;;;;0.65;0.65;;;;;;;;;;4920803;29;20450;-76
2022/04/17 00:53:19;;;;;;;0.85;0.57;;;;;;;;;;4938173;29;20118;-76
2022/04/17 00:55:44;;;;;;;2.42;0.63;;;;;;;;;;4920782;29;20131;-76
2022/04/17 00:58:10;;;;;;;0.57;0.40;;;;;;;;;;4934807;29;20023;-76
2022/04/17 01:00:38;;;;;;;0.77;0.75;;;;;;;;;;4940475;29;20024;-75
2022/04/17 01:03:03;;;;;;;1.63;1.52;;;;;;;;;;4940513;29;20115;-76
2022/04/17 01:05:28;;;;;;;0.38;0.38;;;;;;;;;;4940159;29;20068;-75
2022/04/17 01:07:56;;;;;;;0.50;0.50;;;;;;;;;;4939512;29;20051;-76
2022/04/17 01:10:24;;;;;;;0.08;0.08;;;;;;;;;;4922926;29;20451;-76
2022/04/17 01:12:50;;;;;;;2.45;0.98;;;;;;;;;;4939640;29;20036;-76
2022/04/17 01:15:15;;;;;;;0.38;0.38;;;;;;;;;;4924348;29;20430;-75
2022/04/17 01:17:43;;;;;;;5.55;2.10;;;;;;;;;;4922939;29;20040;-76
2022/04/17 01:20:10;;;;;;;0.70;0.70;;;;;;;;;;4940094;29;20371;-76
2022/04/17 01:22:35;;;;;;;2.17;1.48;;;;;;;;;;4939200;29;20088;-76
2022/04/17 01:27:47;;;;;;;1.70;0.98;;;;;;;;;;4939962;29;20087;-75
2022/04/17 01:30:15;;;;;;;1.05;0.95;;;;;;;;;;4939807;29;20031;-76
2022/04/17 01:32:40;;;;;;;0.40;0.40;;;;;;;;;;4939336;29;20039;-76
2022/04/17 01:35:08;;;;;;;1.30;1.20;;;;;;;;;;4939898;29;20104;-76
2022/04/17 01:37:36;;;;;;;1.63;1.20;;;;;;;;;;4939190;29;20358;-76
2022/04/17 01:40:01;;;;;;;1.85;1.25;;;;;;;;;;4931383;29;20108;-76
2022/04/17 01:42:26;;;;;;;0.20;0.20;;;;;;;;;;4925525;29;20040;-76
2022/04/17 01:44:52;;;;;;;0.38;0.38;;;;;;;;;;4938914;29;20031;-76
2022/04/17 01:47:18;;;;;;;0.63;0.63;;;;;;;;;;4924249;29;20084;-75
2022/04/17 01:49:43;;;;;;;0.20;0.20;;;;;;;;;;4938357;29;20044;-77
2022/04/17 01:52:08;;;;;;;0.57;0.50;;;;;;;;;;4939720;29;20035;-76
2022/04/17 01:54:34;;;;;;;0.68;0.68;;;;;;;;;;4935812;29;20024;-77
2022/04/17 01:57:00;;;;;;;0.52;0.52;;;;;;;;;;4921576;29;20125;-76
2022/04/17 01:59:25;;;;;;;0.63;0.63;;;;;;;;;;4938892;29;20027;-76
2022/04/17 02:01:54;;;;;;;0.70;0.70;;;;;;;;;;4936354;29;20035;-76
2022/04/17 02:04:20;;;;;;;0.43;0.43;;;;;;;;;;4938497;29;20039;-75
2022/04/17 02:06:48;;;;;;;0.20;0.20;;;;;;;;;;4937149;29;20338;-76
2022/04/17 02:09:17;;;;;;;0.20;0.20;;;;;;;;;;4935283;29;20032;-76
2022/04/17 02:11:45;;;;;;;0.35;0.35;;;;;;;;;;4922591;29;20466;-76
2022/04/17 02:14:13;;;;;;;0.73;0.68;;;;;;;;;;4938225;29;20481;-76
2022/04/17 02:16:39;;;;;;;1.17;0.60;;;;;;;;;;4939106;29;20055;-76
2022/04/17 02:19:04;;;;;;;0.65;0.65;;;;;;;;;;4939282;29;20478;-76
2022/04/17 02:21:30;;;;;;;0.20;0.20;;;;;;;;;;4938379;29;20040;-76
2022/04/17 02:23:56;;;;;;;0.30;0.30;;;;;;;;;;4936312;29;20020;-76
2022/04/17 02:26:24;;;;;;;0.60;0.60;;;;;;;;;;4927907;29;20397;-76
2022/04/17 02:28:51;;;;;;;0.77;0.75;;;;;;;;;;4938103;29;20456;-76
2022/04/17 02:31:17;;;;;;;0.52;0.52;;;;;;;;;;4937962;29;20035;-76
2022/04/17 02:33:42;;;;;;;1.15;1.05;;;;;;;;;;4938135;29;20103;-76
2022/04/17 02:36:08;;;;;;;0.30;0.30;;;;;;;;;;4938777;29;20027;-77
2022/04/17 02:38:33;;;;;;;1.48;1.38;;;;;;;;;;4937111;29;20032;-76
2022/04/17 02:40:59;;;;;;;0.43;0.43;;;;;;;;;;4929221;29;20034;-76
2022/04/17 02:43:24;;;;;;;0.45;0.45;;;;;;;;;;4938688;29;20604;-76
2022/04/17 02:45:50;;;;;;;0.45;0.45;;;;;;;;;;4937677;29;20342;-76
2022/04/17 02:48:15;;;;;;;0.77;0.77;;;;;;;;;;4937484;29;20418;-76
2022/04/17 02:50:41;;;;;;;1.95;1.20;;;;;;;;;;4938534;29;20469;-76
2022/04/17 02:53:06;;;;;;;1.30;1.20;;;;;;;;;;4938692;29;20048;-76
2022/04/17 02:55:31;;;;;;;0.75;0.73;;;;;;;;;;4936791;29;20032;-79
2022/04/17 02:57:59;;;;;;;0.63;0.63;;;;;;;;;;4920767;29;20028;-78
2022/04/17 03:00:26;;;;;;;0.40;0.40;;;;;;;;;;4922424;29;20036;-77
2022/04/17 03:05:36;;;;;;;1.30;1.20;;;;;;;;;;4938334;29;20122;-75
2022/04/17 03:08:12;;;;;;;0.35;0.35;;;;;;;;;;4942194;29;20393;-75
2022/04/17 03:10:39;;;;;;;0.68;0.68;;;;;;;;;;4934133;29;20026;-77
2022/04/17 03:13:06;;;;;;;0.85;0.85;;;;;;;;;;4939905;29;20028;-78
2022/04/17 03:15:37;;;;;;;0.50;0.32;;;;;;;;;;4934685;29;20035;-77
2022/04/17 03:18:06;;;;;;;1.23;1.15;;;;;;;;;;4941655;29;20023;-77
2022/04/17 03:20:31;;;;;;;0.20;0.20;;;;;;;;;;4923552;29;20095;-75
2022/04/17 03:22:56;;;;;;;1.17;0.30;;;;;;;;;;4937559;29;20035;-76
2022/04/17 03:25:22;;;;;;;0.32;0.22;;;;;;;;;;4936674;29;20042;-75
2022/04/17 03:27:47;;;;;;;0.63;0.40;;;;;;;;;;4930850;29;20431;-75
2022/04/17 03:30:16;;;;;;;0.57;0.50;;;;;;;;;;4918871;29;20107;-75
2022/04/17 03:32:46;;;;;;;0.38;0.38;;;;;;;;;;4918953;29;20038;-75
2022/04/17 03:35:12;;;;;;;0.57;0.57;;;;;;;;;;4917793;29;20027;-75
2022/04/17 03:37:42;;;;;;;0.43;0.43;;;;;;;;;;4918969;29;20028;-75
2022/04/17 03:40:11;;;;;;;1.25;1.15;;;;;;;;;;4936588;29;20048;-75
2022/04/17 03:42:37;;;;;;;0.25;0.20;;;;;;;;;;4937561;29;20019;-75
2022/04/17 03:45:07;;;;;;;1.00;0.80;;;;;;;;;;4937478;29;20039;-75
2022/04/17 03:47:35;;;;;;;0.55;0.55;;;;;;;;;;4936580;29;20023;-75
2022/04/17 03:50:03;;;;;;;0.15;0.15;;;;;;;;;;4936603;29;20488;-75
2022/04/17 03:52:38;;;;;;;0.20;0.20;;;;;;;;;;4920761;29;20078;-75
2022/04/17 03:55:04;;;;;;;0.65;0.65;;;;;;;;;;4935377;29;20118;-74
2022/04/17 03:57:32;;;;;;;0.98;0.95;;;;;;;;;;4918737;29;20463;-75
2022/04/17 04:00:05;;;;;;;0.00;0.00;;;;;;;;;;4918547;29;20533;-75
2022/04/17 04:02:31;;;;;;;0.25;0.20;;;;;;;;;;4926351;29;20133;-75
2022/04/17 04:04:57;;;;;;;3.50;0.52;;;;;;;;;;4935609;29;20048;-75
2022/04/17 04:07:25;;;;;;;0.35;0.35;;;;;;;;;;4935194;29;20031;-75
2022/04/17 04:09:55;;;;;;;1.30;0.55;;;;;;;;;;4936600;29;20028;-75
2022/04/17 04:12:21;;;;;;;0.57;0.57;;;;;;;;;;4937378;29;20103;-75
2022/04/17 04:14:46;;;;;;;0.30;0.30;;;;;;;;;;4935991;29;20167;-75
2022/04/17 04:17:12;;;;;;;0.38;0.38;;;;;;;;;;4936244;29;20054;-74
2022/04/17 04:19:37;;;;;;;0.30;0.30;;;;;;;;;;4936664;29;20024;-75
2022/04/17 04:22:03;;;;;;;0.00;0.00;;;;;;;;;;4936303;29;20437;-75
2022/04/17 04:24:29;;;;;;;0.55;0.40;;;;;;;;;;4937268;29;20393;-75
2022/04/17 04:29:40;;;;;;;0.22;0.22;;;;;;;;;;4934914;29;20186;-75
2022/04/17 04:32:06;;;;;;;0.85;0.75;;;;;;;;;;4936999;29;20094;-75
2022/04/17 04:34:32;;;;;;;1.27;0.68;;;;;;;;;;4937251;29;20589;-75
2022/04/17 04:36:57;;;;;;;0.25;0.05;;;;;;;;;;4936912;29;20031;-76
2022/04/17 04:39:25;;;;;;;0.17;0.10;;;;;;;;;;4936953;29;20345;-75
2022/04/17 04:41:50;;;;;;;0.10;0.10;;;;;;;;;;4936730;29;20046;-75
2022/04/17 04:44:16;;;;;;;0.25;0.25;;;;;;;;;;4936754;29;20122;-75
2022/04/17 04:46:44;;;;;;;2.92;2.22;;;;;;;;;;4936915;29;20046;-75
2022/04/17 04:51:55;;;;;;;0.00;0.00;;;;;;;;;;4936874;29;20030;-75
2022/04/17 04:54:21;;;;;;;0.22;0.22;;;;;;;;;;4936939;29;20039;-75
2022/04/17 04:56:46;;;;;;;1.00;0.50;;;;;;;;;;4935945;29;20480;-76
2022/04/17 04:59:16;;;;;;;0.40;0.40;;;;;;;;;;4936940;29;20111;-75
2022/04/17 05:01:41;;;;;;;0.08;0.08;;;;;;;;;;4936732;29;20039;-75
2022/04/17 05:04:07;;;;;;;0.08;0.08;;;;;;;;;;4936568;29;20027;-75
2022/04/17 05:06:32;;;;;;;0.65;0.52;;;;;;;;;;4937288;29;20034;-75
2022/04/17 05:08:57;;;;;;;0.10;0.10;;;;;;;;;;4936734;29;20028;-75
2022/04/17 05:11:23;;;;;;;0.80;0.80;;;;;;;;;;4936508;29;20024;-75
2022/04/17 05:13:49;;;;;;;0.82;0.50;;;;;;;;;;4939250;29;20048;-74
2022/04/17 05:16:14;;;;;;;0.00;0.00;;;;;;;;;;4939529;29;20534;-75
2022/04/17 05:18:39;;;;;;;0.17;0.17;;;;;;;;;;4940168;29;20354;-75
2022/04/17 05:21:06;;;;;;;0.95;0.85;;;;;;;;;;4939271;29;20058;-75
2022/04/17 05:23:32;;;;;;;0.20;0.20;;;;;;;;;;4940262;29;20027;-75
2022/04/17 05:26:01;;;;;;;0.77;0.75;;;;;;;;;;4939121;29;20038;-75
2022/04/17 05:28:33;;;;;;;0.47;0.20;;;;;;;;;;4940093;29;20051;-75
2022/04/17 05:30:58;;;;;;;0.17;0.10;;;;;;;;;;4939163;29;20019;-74
2022/04/17 05:33:24;;;;;;;0.77;0.77;;;;;;;;;;4940213;29;20497;-75
2022/04/17 05:35:51;;;;;;;1.55;0.90;;;;;;;;;;4939120;29;20023;-75
2022/04/17 05:38:17;;;;;;;0.63;0.63;;;;;;;;;;4939912;29;20051;-75
2022/04/17 05:40:44;;;;;;;0.32;0.32;;;;;;;;;;4938398;29;20075;-75
2022/04/17 05:43:13;;;;;;;0.10;0.10;;;;;;;;;;4938926;29;20028;-75
2022/04/17 05:45:39;;;;;;;1.30;0.30;;;;;;;;;;4938769;29;20032;-75
2022/04/17 05:48:09;;;;;;;0.45;0.45;;;;;;;;;;4938832;29;20028;-75
2022/04/17 05:50:35;;;;;;;0.45;0.45;;;;;;;;;;4938994;29;20043;-74
2022/04/17 05:53:00;;;;;;;1.27;0.60;;;;;;;;;;4938627;29;20027;-75
2022/04/17 05:55:25;;;;;;;0.50;0.50;;;;;;;;;;4932609;29;20083;-74
2022/04/17 05:57:51;;;;;;;0.70;0.70;;;;;;;;;;4938516;29;20118;-75
2022/04/17 06:00:16;;;;;;;0.73;0.15;;;;;;;;;;4939606;29;20453;-75
2022/04/17 06:02:46;;;;;;;3.58;1.15;;;;;;;;;;4939620;29;20027;-75
2022/04/17 06:05:12;;;;;;;1.00;0.60;;;;;;;;;;4938902;29;20031;-75
2022/04/17 06:07:37;;;;;;;4.75;0.55;;;;;;;;;;4938998;29;20039;-75
2022/04/17 06:10:04;;;;;;;1.65;0.80;;;;;;;;;;4939113;29;20023;-75
2022/04/17 06:12:30;;;;;;;0.93;0.45;;;;;;;;;;4938486;29;20043;-75
2022/04/17 06:14:55;;;;;;;0.93;0.85;;;;;;;;;;4939638;29;20031;-75
2022/04/17 06:17:20;;;;;;;1.30;0.65;;;;;;;;;;4938202;29;20050;-75
2022/04/17 06:19:46;;;;;;;0.52;0.52;;;;;;;;;;4939198;29;20032;-75
2022/04/17 06:22:11;;;;;;;0.17;0.13;;;;;;;;;;4938804;29;20114;-76
2022/04/17 06:24:39;;;;;;;0.52;0.52;;;;;;;;;;4939072;29;20020;-74
2022/04/17 06:27:05;;;;;;;0.05;0.05;;;;;;;;;;4938396;29;20035;-75
2022/04/17 06:29:34;;;;;;;0.50;0.50;;;;;;;;;;4938050;29;20094;-74
2022/04/17 06:32:00;;;;;;;0.98;0.82;;;;;;;;;;4938975;29;20051;-75
2022/04/17 06:34:25;;;;;;;0.77;0.77;;;;;;;;;;4938926;29;20476;-74
2022/04/17 06:36:50;;;;;;;0.35;0.35;;;;;;;;;;4938825;29;20023;-75
2022/04/17 06:39:16;;;;;;;1.13;0.93;;;;;;;;;;4938975;29;20094;-76
2022/04/17 06:41:45;;;;;;;0.85;0.75;;;;;;;;;;4938829;29;20028;-75
2022/04/17 06:44:11;;;;;;;0.30;0.30;;;;;;;;;;4938676;29;20103;-75
2022/04/17 06:46:37;;;;;;;1.95;1.05;;;;;;;;;;4938541;29;20480;-76
2022/04/17 06:49:03;;;;;;;0.63;0.60;;;;;;;;;;4937906;29;20054;-75
2022/04/17 06:51:28;;;;;;;0.52;0.50;;;;;;;;;;4939134;29;20039;-75
2022/04/17 06:53:53;;;;;;;0.35;0.35;;;;;;;;;;4941054;29;20024;-75
2022/04/17 06:56:19;;;;;;;0.10;0.10;;;;;;;;;;4925883;29;20115;-75
2022/04/17 06:58:45;;;;;;;0.55;0.52;;;;;;;;;;4918717;29;20034;-75
2022/04/17 07:01:14;;;;;;;0.85;0.70;;;;;;;;;;4918442;29;20135;-75
2022/04/17 07:03:41;;;;;;;0.50;0.43;;;;;;;;;;4928196;29;20098;-75
2022/04/17 07:06:08;;;;;;;0.57;0.57;;;;;;;;;;4937660;29;20048;-75
2022/04/17 07:08:34;;;;;;;0.35;0.35;;;;;;;;;;4938395;29;20027;-75
2022/04/17 07:11:01;;;;;;;0.73;0.70;;;;;;;;;;4938361;29;20402;-76
2022/04/17 07:13:27;;;;;;;0.80;0.80;;;;;;;;;;4937190;29;20118;-76
2022/04/17 07:15:52;;;;;;;0.10;0.10;;;;;;;;;;4937903;29;20103;-76
2022/04/17 07:18:20;;;;;;;1.45;0.17;;;;;;;;;;4936911;29;20055;-75
2022/04/17 07:20:46;;;;;;;0.15;0.15;;;;;;;;;;4937211;29;20110;-76
2022/04/17 07:23:11;;;;;;;0.35;0.35;;;;;;;;;;4938034;29;20106;-75
2022/04/17 07:25:39;;;;;;;0.20;0.20;;;;;;;;;;4936121;29;20027;-76
2022/04/17 07:28:05;;;;;;;0.40;0.40;;;;;;;;;;4936648;29;20027;-76
2022/04/17 07:30:32;;;;;;;0.50;0.50;;;;;;;;;;4936925;29;20114;-76
2022/04/17 07:33:01;;;;;;;0.60;0.45;;;;;;;;;;4937950;29;20086;-76
2022/04/17 07:35:31;;;;;;;0.30;0.30;;;;;;;;;;4936405;29;20055;-76
2022/04/17 07:37:56;;;;;;;0.70;0.30;;;;;;;;;;4937242;29;20036;-76
2022/04/17 07:40:26;;;;;;;0.30;0.30;;;;;;;;;;4937718;29;20032;-76
2022/04/17 07:42:53;;;;;;;0.47;0.30;;;;;;;;;;4936891;29;20035;-77
2022/04/17 07:45:19;;;;;;;0.38;0.38;;;;;;;;;;4937476;29;20123;-78
2022/04/17 07:47:45;;;;;;;0.52;0.52;;;;;;;;;;4936665;29;20162;-76
2022/04/17 07:50:14;;;;;;;0.10;0.10;;;;;;;;;;4936595;29;20114;-76
2022/04/17 07:52:41;;;;;;;0.30;0.28;;;;;;;;;;4937332;29;20028;-76
2022/04/17 07:55:10;;;;;;;0.22;0.22;;;;;;;;;;4936953;29;20024;-76
2022/04/17 08:00:21;;;;;;;0.20;0.20;;;;;;;;;;4937186;29;20070;-76
2022/04/17 08:05:44;;;;;;;0.20;0.20;;;;;;;;;;4937314;29;20042;-75
2022/04/17 08:08:10;;;;;;;0.10;0.10;;;;;;;;;;4938745;29;20051;-76
2022/04/17 08:10:36;;;;;;;0.20;0.20;;;;;;;;;;4923003;29;20046;-77
2022/04/17 08:13:01;;;;;;;0.17;0.17;;;;;;;;;;4939707;29;20032;-77
2022/04/17 08:15:29;;;;;;;0.35;0.28;;;;;;;;;;4939229;29;20450;-76
2022/04/17 08:17:54;;;;;;;0.17;0.17;;;;;;;;;;4923694;29;20463;-76
2022/04/17 08:20:20;;;;;;;0.43;0.40;;;;;;;;;;4937854;29;20066;-76
2022/04/17 08:22:48;;;;;;;0.20;0.20;;;;;;;;;;4937542;29;20030;-76
2022/04/17 08:25:13;;;;;;;0.30;0.30;;;;;;;;;;4936501;29;20035;-76
2022/04/17 08:27:49;;;;;;;0.20;0.20;;;;;;;;;;4937062;29;20028;-77
2022/04/17 08:30:25;;;;;;;1.45;0.75;;;;;;;;;;4936050;29;20024;-76
2022/04/17 08:32:50;;;;;;;0.30;0.30;;;;;;;;;;4937148;29;20032;-78
2022/04/17 08:35:16;;;;;;;0.32;0.32;;;;;;;;;;4937104;29;20019;-76
2022/04/17 08:37:43;;;;;;;0.20;0.20;;;;;;;;;;4936079;29;20354;-76
2022/04/17 08:40:09;;;;;;;0.20;0.20;;;;;;;;;;4935931;29;20438;-76
2022/04/17 08:42:36;;;;;;;0.60;0.40;;;;;;;;;;4936783;29;20040;-76
2022/04/17 08:45:05;;;;;;;1.00;0.60;;;;;;;;;;4937010;29;20361;-75
2022/04/17 08:47:32;;;;;;;0.25;0.25;;;;;;;;;;4938625;29;20319;-75
2022/04/17 08:49:57;;;;;;;0.28;0.28;;;;;;;;;;4939743;29;20424;-76
2022/04/17 08:52:23;;;;;;;0.03;0.03;;;;;;;;;;4940547;29;20118;-75
2022/04/17 08:54:49;;;;;;;0.20;0.20;;;;;;;;;;4936605;29;20119;-76
2022/04/17 08:57:16;;;;;;;0.20;0.20;;;;;;;;;;4921786;29;20111;-76
2022/04/17 08:59:42;;;;;;;7.68;0.40;;;;;;;;;;4921445;29;20039;-76
2022/04/17 09:02:13;;;;;;;0.30;0.30;;;;;;;;;;4921508;29;20032;-76
2022/04/17 09:04:41;;;;;;;0.30;0.30;;;;;;;;;;4926974;29;20079;-77
2022/04/17 09:07:07;;;;;;;0.75;0.55;;;;;;;;;;4939622;29;20114;-78
2022/04/17 09:09:41;;;;;;;1.10;0.85;;;;;;;;;;4939837;29;20019;-77
2022/04/17 09:12:07;;;;;;;0.20;0.20;;;;;;;;;;4940731;29;20415;-77
2022/04/17 09:14:37;;;;;;;0.40;0.40;;;;;;;;;;4940676;29;20478;-77
2022/04/17 09:17:08;;;;;;;0.25;0.25;;;;;;;;;;4940526;29;20086;-78
2022/04/17 09:19:33;;;;;;;0.70;0.70;;;;;;;;;;4940044;29;20028;-78
2022/04/17 09:22:02;;;;;;;0.10;0.10;;;;;;;;;;4938954;29;20028;-78
2022/04/17 09:24:27;;;;;;;0.25;0.10;;;;;;;;;;4938696;29;20023;-77
2022/04/17 09:26:58;;;;;;;0.43;0.43;;;;;;;;;;4921483;29;20410;-78
2022/04/17 09:29:33;;;;;;;0.20;0.20;;;;;;;;;;4920565;29;20051;-77
2022/04/17 09:32:04;;;;;;;0.68;0.40;;;;;;;;;;4921419;29;20439;-78
2022/04/17 09:34:46;;;;;;;0.30;0.30;;;;;;;;;;4926408;29;20042;-77
2022/04/17 09:37:13;;;;;;;;;;;;;;;;;;4940783;29;20031;-78
2022/04/17 09:39:40;;;;;;;0.20;0.20;;;;;;;;;;4939180;29;19911;-78
2022/04/17 09:42:08;;;;;;;0.25;0.15;;;;;;;;;;4923222;29;20167;-78
2022/04/17 09:44:46;;;;;;;0.47;0.47;;;;;;;;;;4939243;29;20023;-78
2022/04/17 09:47:25;;;;;;;0.20;0.20;;;;;;;;;;4938798;29;20090;-77
2022/04/17 09:50:00;;;;;;;0.30;0.30;;;;;;;;;;4939398;29;20103;-78
2022/04/17 09:52:25;;;;;;;0.40;0.40;;;;;;;;;;4940045;29;20122;-78
2022/04/17 09:54:51;;;;;;;0.30;0.30;;;;;;;;;;4937522;29;20031;-76
2022/04/17 09:57:28;;;;;;;0.20;0.20;;;;;;;;;;4936507;29;20019;-75
2022/04/17 09:59:54;;;;;;;0.20;0.20;;;;;;;;;;4937779;29;20435;-79
2022/04/17 10:02:29;;;;;;;0.30;0.30;;;;;;;;;;4937189;29;20028;-78
2022/04/17 10:04:54;;;;;;;0.20;0.20;;;;;;;;;;4937056;29;20035;-76
2022/04/17 10:07:22;;;;;;;1.27;0.35;;;;;;;;;;4929944;29;20078;-75
2022/04/17 10:09:48;;;;;;;0.60;0.35;;;;;;;;;;4924945;29;20043;-76
2022/04/17 10:12:22;;;;;;;0.28;0.28;;;;;;;;;;4937405;29;20457;-75
2022/04/17 10:14:52;;;;;;;0.20;0.20;;;;;;;;;;4932922;29;20032;-74
2022/04/17 10:17:22;;;;;;;0.17;0.17;;;;;;;;;;4937996;29;20472;-75
2022/04/17 10:19:50;;;;;;;0.10;0.10;;;;;;;;;;4933913;29;20039;-76
2022/04/17 10:22:21;;;;;;;0.30;0.30;;;;;;;;;;4929748;29;20027;-76
2022/04/17 10:24:54;;;;;;;0.40;0.30;;;;;;;;;;4935089;29;20028;-76
2022/04/17 10:27:25;;;;;;;0.10;0.10;;;;;;;;;;4927724;29;20028;-76
2022/04/17 10:29:56;;;;;;;0.20;0.20;;;;;;;;;;4937581;29;20042;-77
2022/04/17 10:32:52;;;;;;;0.30;0.30;;;;;;;;;;4936837;29;20043;-77
2022/04/17 10:35:39;;;;;;;0.60;0.45;;;;;;;;;;4932149;29;20106;-77
2022/04/17 10:38:18;;;;;;;0.13;0.13;;;;;;;;;;4947238;28;20030;-77
2022/04/17 10:41:12;;;;;;;0.30;0.30;;;;;;;;;;4935104;29;20043;-76
2022/04/17 10:43:46;;;;;;;0.20;0.20;;;;;;;;;;4935499;29;20442;-76
2022/04/17 10:46:21;;;;;;;1.00;0.60;;;;;;;;;;4930466;29;20038;-76
2022/04/17 10:49:01;;;;;;;0.40;0.40;;;;;;;;;;4927326;29;20090;-76
2022/04/17 10:51:38;;;;;;;0.65;0.57;;;;;;;;;;4919673;29;20024;-75
2022/04/17 10:54:14;;;;;;;0.20;0.20;;;;;;;;;;4924094;29;20345;-76
2022/04/17 10:56:58;;;;;;;1.00;0.63;;;;;;;;;;4928212;29;20048;-73
2022/04/17 10:59:33;;;;;;;0.50;0.45;;;;;;;;;;4917642;29;20027;-76
2022/04/17 11:02:08;;;;;;;0.40;0.40;;;;;;;;;;4936750;29;20063;-77
2022/04/17 11:04:40;;;;;;;0.43;0.40;;;;;;;;;;4936570;29;20040;-76
2022/04/17 11:07:05;;;;;;;0.57;0.47;;;;;;;;;;4937058;29;20032;-76
2022/04/17 11:09:34;;;;;;;0.47;0.47;;;;;;;;;;4937551;29;20039;-76
2022/04/17 11:12:06;;;;;;;0.82;0.75;;;;;;;;;;4938550;29;20179;-77
2022/04/17 11:14:34;;;;;;;0.20;0.20;;;;;;;;;;4931219;29;20099;-81
2022/04/17 11:17:12;;;;;;;0.88;0.68;;;;;;;;;;4936495;29;20027;-80
2022/04/17 11:19:47;;;;;;;1.88;0.35;;;;;;;;;;4914456;29;20046;-80
2022/04/17 11:22:16;;;;;;;0.22;0.22;;;;;;;;;;4936704;29;20050;-81
2022/04/17 11:25:02;;;;;;;0.40;0.38;;;;;;;;;;4916535;29;20473;-79
2022/04/17 11:27:49;;;;;;;0.28;0.28;;;;;;;;;;4919203;29;20139;-82
2022/04/17 11:30:18;;;;;;;0.50;0.50;;;;;;;;;;4934927;29;20052;-74
2022/04/17 11:32:46;;;;;;;1.55;0.75;;;;;;;;;;4933099;29;20035;-79
2022/04/17 11:35:14;;;;;;;1.17;0.52;;;;;;;;;;4936842;29;20327;-77
2022/04/17 11:37:39;;;;;;;0.20;0.20;;;;;;;;;;4936465;29;20048;-78
2022/04/17 11:40:12;;;;;;;0.40;0.40;;;;;;;;;;4938271;29;20027;-79
2022/04/17 11:42:43;;;;;;;1.05;0.65;;;;;;;;;;4931020;29;20043;-76
2022/04/17 11:45:13;;;;;;;0.13;0.13;;;;;;;;;;4935497;29;20035;-79
2022/04/17 11:47:40;;;;;;;0.10;0.10;;;;;;;;;;4932750;29;20698;-78
2022/04/17 11:50:08;;;;;;;0.10;0.10;;;;;;;;;;4935079;29;20601;-77
2022/04/17 11:52:33;;;;;;;0.47;0.43;;;;;;;;;;4931203;29;20031;-76
2022/04/17 11:55:02;;;;;;;0.30;0.30;;;;;;;;;;4925939;29;20051;-77
2022/04/17 11:57:32;;;;;;;0.30;0.30;;;;;;;;;;4930440;29;20043;-81
2022/04/17 11:59:58;;;;;;;0.30;0.30;;;;;;;;;;4936538;29;20172;-79
2022/04/17 12:02:25;;;;;;;1.02;0.50;;;;;;;;;;4937741;29;20075;-82
2022/04/17 12:04:55;;;;;;;1.20;0.55;;;;;;;;;;4935992;29;20024;-79
2022/04/17 12:07:25;;;;;;;0.60;0.55;;;;;;;;;;4936444;29;20040;-81
2022/04/17 12:10:07;;;;;;;0.30;0.30;;;;;;;;;;4934891;29;20051;-78
2022/04/17 12:12:37;;;;;;;0.50;0.50;;;;;;;;;;4936315;29;20027;-79
2022/04/17 12:15:07;;;;;;;0.70;0.43;;;;;;;;;;4917822;29;20047;-81
2022/04/17 12:17:34;;;;;;;0.70;0.70;;;;;;;;;;4928545;29;20035;-81
2022/04/17 12:20:00;;;;;;;0.47;0.47;;;;;;;;;;4936770;29;20032;-81
2022/04/17 12:22:27;;;;;;;0.25;0.25;;;;;;;;;;4930969;29;20111;-79
2022/04/17 12:24:53;;;;;;;0.70;0.65;;;;;;;;;;4935021;29;20061;-81
2022/04/17 12:27:21;;;;;;;2.85;0.40;;;;;;;;;;4936389;29;20481;-77
2022/04/17 12:29:47;;;;;;;0.73;0.47;;;;;;;;;;4951021;29;20028;-80
2022/04/17 12:32:31;;;;;;;0.40;0.40;;;;;;;;;;4936881;29;20039;-80
2022/04/17 12:35:01;;;;;;;1.20;0.38;;;;;;;;;;4923950;29;20036;-78
2022/04/17 12:37:28;;;;;;;1.50;0.30;;;;;;;;;;4933078;29;20111;-80
2022/04/17 12:40:25;;;;;;;0.40;0.40;;;;;;;;;;4936225;29;20035;-81
2022/04/17 12:42:53;;;;;;;1.08;0.45;;;;;;;;;;4923787;29;20047;-79
2022/04/17 12:45:28;;;;;;;0.45;0.45;;;;;;;;;;4935302;29;20593;-79
2022/04/17 12:48:23;;;;;;;1.15;0.57;;;;;;;;;;4935414;29;20110;-79
2022/04/17 12:50:56;;;;;;;0.20;0.20;;;;;;;;;;4936237;29;20028;-79
2022/04/17 12:53:22;;;;;;;4.55;1.60;;;;;;;;;;4920845;29;20552;-79
2022/04/17 12:55:53;;;;;;;3.17;0.68;;;;;;;;;;4935887;29;20028;-80
2022/04/17 12:58:20;;;;;;;0.60;0.60;;;;;;;;;;4935340;29;20482;-79
2022/04/17 13:00:55;;;;;;;0.38;0.38;;;;;;;;;;4936739;29;20046;-79
2022/04/17 13:03:23;;;;;;;0.30;0.30;;;;;;;;;;4933168;29;20127;-79
2022/04/17 13:06:02;;;;;;;0.30;0.30;;;;;;;;;;4936256;29;20042;-79
2022/04/17 13:08:32;;;;;;;0.47;0.47;;;;;;;;;;4936365;29;20377;-78
2022/04/17 13:10:57;;;;;;;0.85;0.75;;;;;;;;;;4935044;29;20078;-80
2022/04/17 13:13:41;;;;;;;0.95;0.40;;;;;;;;;;4934274;29;20441;-82
2022/04/17 13:16:12;;;;;;;1.38;1.02;;;;;;;;;;4917757;29;20445;-77
2022/04/17 13:18:38;;;;;;;1.27;0.40;;;;;;;;;;4920696;29;20036;-82
2022/04/17 13:21:05;;;;;;;1.20;1.02;;;;;;;;;;4935872;29;20048;-79
2022/04/17 13:23:33;;;;;;;0.68;0.28;;;;;;;;;;4936438;29;20031;-78
2022/04/17 13:25:58;;;;;;;0.20;0.20;;;;;;;;;;4936123;29;20024;-79
2022/04/17 13:28:26;;;;;;;0.98;0.50;;;;;;;;;;4935536;29;20082;-79
2022/04/17 13:30:53;;;;;;;5.00;0.95;;;;;;;;;;4935486;29;20035;-79
2022/04/17 13:33:21;;;;;;;0.70;0.45;;;;;;;;;;4921664;29;20453;-80
2022/04/17 13:35:51;;;;;;;0.28;0.28;;;;;;;;;;4940257;29;20023;-78
2022/04/17 13:38:16;;;;;;;2.17;1.13;;;;;;;;;;4938305;29;20058;-79
2022/04/17 13:40:41;;;;;;;0.73;0.52;;;;;;;;;;4938232;29;20120;-79
2022/04/17 13:43:09;;;;;;;0.52;0.32;;;;;;;;;;4939332;29;20036;-79
2022/04/17 13:45:34;;;;;;;1.73;0.63;;;;;;;;;;4938558;29;20031;-78
2022/04/17 13:47:59;;;;;;;0.90;0.75;;;;;;;;;;4939265;29;20024;-80
2022/04/17 13:50:30;;;;;;;0.88;0.35;;;;;;;;;;4938852;29;20437;-80
2022/04/17 13:52:59;;;;;;;0.85;0.85;;;;;;;;;;4939490;29;20065;-79
2022/04/17 13:55:24;;;;;;;0.75;0.70;;;;;;;;;;4938292;29;20334;-77
2022/04/17 13:57:57;;;;;;;2.08;0.98;;;;;;;;;;4939137;29;20038;-82
2022/04/17 14:00:22;;;;;;;3.95;0.65;;;;;;;;;;4938442;29;20028;-80
2022/04/17 14:02:50;;;;;;;0.43;0.43;;;;;;;;;;4938499;29;20446;-80
2022/04/17 14:05:15;;;;;;;0.88;0.63;;;;;;;;;;4938741;29;20056;-79
2022/04/17 14:07:41;;;;;;;0.30;0.30;;;;;;;;;;4938724;29;20070;-80
2022/04/17 14:10:09;;;;;;;0.55;0.55;;;;;;;;;;4937926;29;20032;-80
2022/04/17 14:12:38;;;;;;;2.40;0.68;;;;;;;;;;4938138;29;20039;-79
2022/04/17 14:15:04;;;;;;;1.23;0.90;;;;;;;;;;4937765;29;20102;-79
2022/04/17 14:17:29;;;;;;;2.38;0.55;;;;;;;;;;4938666;29;20358;-79
2022/04/17 14:19:57;;;;;;;0.32;0.32;;;;;;;;;;4938691;29;20067;-78
2022/04/17 14:22:25;;;;;;;0.35;0.35;;;;;;;;;;4938702;29;20083;-79
2022/04/17 14:24:52;;;;;;;0.75;0.57;;;;;;;;;;4938411;29;20023;-79
2022/04/17 14:27:18;;;;;;;0.82;0.45;;;;;;;;;;4938771;29;20032;-79
2022/04/17 14:29:49;;;;;;;1.90;0.80;;;;;;;;;;4937371;29;20034;-77
2022/04/17 14:32:15;;;;;;;0.35;0.32;;;;;;;;;;4925388;29;20523;-79
2022/04/17 14:34:41;;;;;;;1.15;0.88;;;;;;;;;;4939250;29;20142;-80
2022/04/17 14:37:06;;;;;;;0.55;0.47;;;;;;;;;;4937547;29;20103;-79
2022/04/17 14:39:31;;;;;;;0.35;0.35;;;;;;;;;;4938142;29;20032;-79
2022/04/17 14:42:02;;;;;;;0.38;0.38;;;;;;;;;;4936508;29;20043;-79
2022/04/17 14:44:27;;;;;;;0.32;0.32;;;;;;;;;;4924708;29;20060;-79
2022/04/17 14:46:55;;;;;;;0.15;0.15;;;;;;;;;;4935363;29;20051;-79
2022/04/17 14:49:22;;;;;;;1.35;0.55;;;;;;;;;;4937282;29;20035;-79
2022/04/17 14:51:47;;;;;;;0.30;0.30;;;;;;;;;;4938256;29;20449;-79
2022/04/17 14:54:15;;;;;;;1.15;0.63;;;;;;;;;;4938320;29;20095;-80
2022/04/17 14:56:44;;;;;;;0.60;0.60;;;;;;;;;;4938639;29;20196;-79
2022/04/17 14:59:09;;;;;;;1.42;0.98;;;;;;;;;;4933110;29;20035;-76
2022/04/17 15:01:35;;;;;;;0.55;0.40;;;;;;;;;;4937183;29;20028;-78
2022/04/17 15:04:01;;;;;;;1.67;0.57;;;;;;;;;;4937901;29;20034;-78
2022/04/17 15:06:26;;;;;;;0.40;0.40;;;;;;;;;;4936636;29;20032;-77